Saigo, Japan

3:16 PM JST on December 04, 2016 (GMT +0900)
Miho Aero | | Change Station

Elev 20 ft 35.49 °N, 133.24 °E | Updated 16 minutes ago

Light Rain
Light Rain
55 °F
Feels Like 55 °F
N
7
Wind Variable Wind from SSE

Today
High -- | Low -- °F
--% Chance of Precip.
Yesterday
High -- | Low -- °F
Precip. -- in
Pressure 29.98 in
Visibility 6.2 miles
Clouds Few 600 ft
Scattered Clouds 5000 ft
Mostly Cloudy 7000 ft
Dew Point 48 °F
Humidity 77%
Rainfall 0.00 in
Snow Depth Not available.
7:01 AM 4:51 PM
Waxing Crescent, 20% visible
METAR RJOH 040600Z 16006KT 9999 -RA FEW006 SCT050 BKN070 13/09 Q1015
Pressure 29.98 in
Visibility 6.2 miles
Clouds Few 600 ft
Scattered Clouds 5000 ft
Mostly Cloudy 7000 ft
Dew Point 48 °F
Humidity 77%
Rainfall 0.00 in
Snow Depth Not available.
7:01 AM 4:51 PM
Waxing Crescent, 20% visible
METAR RJOH 040600Z 16006KT 9999 -RA FEW006 SCT050 BKN070 13/09 Q1015

10-Day Weather Forecast

No radar image for this location.
×

Almanac

Astronomy

Dec. 04, 2016 Rise Set
Actual Time
Civil Twilight
Nautical Twilight
Astronomical Twilight
Moon
Length of Visible Light
Length of Day
Tomorrow will be .
, % of the Moon is Illuminated

Today's Extremes

Country Highs Country Lows

Community

WunderPhotos

Upload Photos

1,955,586 photos uploaded!

WunderBlog® & News

Nearby

Air Quality

  Air Quality AQ Index Pollutant
Not available.

Snow Depth

Station Depth Elevation

Earthquake Activity

City Distance Mag. Time & Date
Minimum magnitude displayed is 2.5.

Coastal Water Temperatures

Place Temperature

Stations

Nearby Weather Stations

Station Location Temp. Windchill Dew Point Humidity Wind Precip. Elev Updated Type